Time;durP1;ratioP1;P1;durP2;ratioP2;P2;SDS_P1;SDS_P2;PMS_P1;PMS_P2;Temp;Humidity;BMP_temperature;BMP_pressure;BME280_temperature;BME280_humidity;BME280_pressure;Samples;Min_cycle;Max_cycle;Signal;HPM_P1;HPM_P2
2021/05/04 00:00:41;;;;;;;7.18;5.60;;;;;;;;;;5052881;28;20049;-61
2021/05/04 00:03:26;;;;;;;7.55;5.65;;;;;;;;;;5053037;28;20057;-60
2021/05/04 00:06:12;;;;;;;5.78;4.97;;;;;;;;;;5053203;28;20150;-60
2021/05/04 00:08:57;;;;;;;5.75;4.82;;;;;;;;;;5052734;28;20049;-61
2021/05/04 00:11:43;;;;;;;5.88;4.55;;;;;;;;;;5052999;28;20052;-60
2021/05/04 00:14:28;;;;;;;7.38;5.15;;;;;;;;;;5051132;28;20127;-61
2021/05/04 00:17:28;;;;;;;6.00;4.47;;;;;;;;;;5052862;28;20052;-60
2021/05/04 00:20:13;;;;;;;7.63;4.22;;;;;;;;;;5052756;28;20084;-61
2021/05/04 00:22:58;;;;;;;4.45;3.92;;;;;;;;;;5052861;28;20131;-60
2021/05/04 00:25:44;;;;;;;5.13;4.25;;;;;;;;;;5051749;28;20419;-60
2021/05/04 00:28:29;;;;;;;3.92;3.47;;;;;;;;;;5052805;28;20067;-60
2021/05/04 00:31:15;;;;;;;6.93;3.78;;;;;;;;;;5052408;28;20056;-61
2021/05/04 00:34:00;;;;;;;4.78;3.83;;;;;;;;;;5052568;28;20053;-61
2021/05/04 00:36:45;;;;;;;5.15;4.30;;;;;;;;;;5052652;28;20068;-60
2021/05/04 00:39:35;;;;;;;5.90;3.58;;;;;;;;;;5052269;28;20049;-61
2021/05/04 00:42:23;;;;;;;6.07;3.70;;;;;;;;;;5052364;28;20053;-61
2021/05/04 00:45:09;;;;;;;5.03;4.50;;;;;;;;;;5051503;28;20041;-61
2021/05/04 00:47:54;;;;;;;5.25;4.18;;;;;;;;;;5052424;28;20049;-61
2021/05/04 00:50:40;;;;;;;7.00;4.40;;;;;;;;;;5052062;28;20048;-61
2021/05/04 00:53:25;;;;;;;4.60;4.10;;;;;;;;;;5052336;28;20060;-61
2021/05/04 00:56:11;;;;;;;8.65;4.97;;;;;;;;;;5051236;28;20045;-61
2021/05/04 00:58:56;;;;;;;5.70;4.63;;;;;;;;;;5052192;28;20487;-61
2021/05/04 01:01:42;;;;;;;5.75;4.40;;;;;;;;;;5037069;28;20106;-61
2021/05/04 01:04:27;;;;;;;5.57;4.70;;;;;;;;;;5052095;28;20037;-61
2021/05/04 01:07:12;;;;;;;7.60;5.22;;;;;;;;;;5036270;28;20072;-61
2021/05/04 01:09:57;;;;;;;6.82;5.82;;;;;;;;;;5051656;28;20049;-61
2021/05/04 01:12:43;;;;;;;6.72;5.30;;;;;;;;;;5051984;28;20049;-61
2021/05/04 01:15:29;;;;;;;5.97;5.38;;;;;;;;;;5050612;28;20072;-61
2021/05/04 01:18:14;;;;;;;6.18;5.63;;;;;;;;;;5032211;28;20053;-61
2021/05/04 01:21:02;;;;;;;6.15;5.55;;;;;;;;;;5031851;28;20076;-61
2021/05/04 01:23:47;;;;;;;6.90;5.40;;;;;;;;;;5032004;28;20138;-61
2021/05/04 01:26:33;;;;;;;7.78;6.68;;;;;;;;;;5037307;28;20052;-61
2021/05/04 01:29:18;;;;;;;7.32;5.78;;;;;;;;;;5051612;28;20500;-61
2021/05/04 01:32:03;;;;;;;8.70;6.18;;;;;;;;;;5051871;28;20087;-61
2021/05/04 01:34:49;;;;;;;8.77;6.22;;;;;;;;;;5051814;28;20407;-61
2021/05/04 01:37:34;;;;;;;7.55;6.85;;;;;;;;;;5050949;28;20059;-61
2021/05/04 01:40:20;;;;;;;8.63;7.07;;;;;;;;;;5051286;28;20559;-61
2021/05/04 01:43:05;;;;;;;8.05;6.57;;;;;;;;;;5051686;28;20041;-61
2021/05/04 01:45:51;;;;;;;8.48;6.90;;;;;;;;;;5051845;28;20179;-61
2021/05/04 01:48:36;;;;;;;7.00;6.40;;;;;;;;;;5050596;28;20052;-61
2021/05/04 01:51:24;;;;;;;6.75;6.05;;;;;;;;;;5051275;28;20556;-61
2021/05/04 01:54:09;;;;;;;6.45;5.85;;;;;;;;;;5036665;28;20045;-61
2021/05/04 01:56:55;;;;;;;8.23;5.78;;;;;;;;;;5050807;28;20048;-61
2021/05/04 01:59:40;;;;;;;9.00;7.03;;;;;;;;;;5031246;28;20045;-61
2021/05/04 02:02:25;;;;;;;7.53;5.70;;;;;;;;;;5031802;28;20054;-61
2021/05/04 02:05:11;;;;;;;7.43;5.40;;;;;;;;;;5031677;28;20146;-61
2021/05/04 02:07:56;;;;;;;7.20;5.22;;;;;;;;;;5036706;28;20514;-61
2021/05/04 02:10:42;;;;;;;12.70;6.13;;;;;;;;;;5091328;22;20045;-61
2021/05/04 02:13:28;;;;;;;8.45;6.40;;;;;;;;;;5051462;28;20056;-61
2021/05/04 02:16:13;;;;;;;7.53;6.25;;;;;;;;;;5051234;28;20045;-61
2021/05/04 02:18:58;;;;;;;9.27;6.03;;;;;;;;;;5049902;28;20045;-61
2021/05/04 02:21:43;;;;;;;11.15;6.60;;;;;;;;;;5051265;28;20049;-61
2021/05/04 02:24:29;;;;;;;6.72;6.13;;;;;;;;;;5051138;28;20433;-61
2021/05/04 02:27:14;;;;;;;6.20;5.30;;;;;;;;;;5054948;28;20071;-60
2021/05/04 02:30:00;;;;;;;9.18;5.78;;;;;;;;;;5053818;28;20183;-61
2021/05/04 02:32:45;;;;;;;8.45;5.50;;;;;;;;;;5054699;28;20044;-61
2021/05/04 02:35:30;;;;;;;8.45;5.72;;;;;;;;;;5054927;28;20128;-61
2021/05/04 02:38:16;;;;;;;8.43;5.78;;;;;;;;;;5054148;28;20060;-61
2021/05/04 02:41:01;;;;;;;5.50;5.00;;;;;;;;;;5034467;28;20049;-61
2021/05/04 02:43:47;;;;;;;6.75;4.40;;;;;;;;;;5034795;28;20042;-61
2021/05/04 02:46:32;;;;;;;7.65;5.57;;;;;;;;;;5034790;28;20072;-61
2021/05/04 02:49:17;;;;;;;7.75;5.55;;;;;;;;;;5039345;28;20037;-61
2021/05/04 02:52:03;;;;;;;7.20;5.55;;;;;;;;;;5054124;28;20056;-61
2021/05/04 02:54:48;;;;;;;5.65;4.93;;;;;;;;;;5053267;28;20041;-61
2021/05/04 02:57:34;;;;;;;5.93;5.38;;;;;;;;;;5054441;28;20406;-61
2021/05/04 03:00:20;;;;;;;6.13;5.15;;;;;;;;;;5053319;28;20049;-60
2021/05/04 03:03:05;;;;;;;6.22;5.47;;;;;;;;;;5054473;28;20079;-61
2021/05/04 03:05:51;;;;;;;8.88;5.32;;;;;;;;;;5054371;28;20076;-61
2021/05/04 03:08:36;;;;;;;5.80;5.20;;;;;;;;;;5054358;28;20076;-61
2021/05/04 03:11:22;;;;;;;8.98;6.22;;;;;;;;;;5053061;28;20044;-61
2021/05/04 03:14:08;;;;;;;7.28;5.28;;;;;;;;;;5054049;28;20414;-60
2021/05/04 03:16:53;;;;;;;9.20;5.40;;;;;;;;;;5054287;28;20186;-61
2021/05/04 03:19:38;;;;;;;8.50;5.75;;;;;;;;;;5053688;28;20041;-62
2021/05/04 03:22:24;;;;;;;5.60;5.10;;;;;;;;;;5054003;28;20040;-62
2021/05/04 03:25:10;;;;;;;6.18;5.38;;;;;;;;;;5054150;28;20053;-61
2021/05/04 03:27:57;;;;;;;6.05;5.38;;;;;;;;;;5054128;28;20051;-61
2021/05/04 03:30:43;;;;;;;7.68;5.28;;;;;;;;;;5052698;28;20175;-61
2021/05/04 03:33:28;;;;;;;8.80;5.70;;;;;;;;;;5053826;28;20487;-61
2021/05/04 03:36:14;;;;;;;7.85;5.47;;;;;;;;;;5053864;28;20186;-61
2021/05/04 03:38:59;;;;;;;8.20;5.63;;;;;;;;;;5053140;28;20045;-61
2021/05/04 03:41:45;;;;;;;7.57;6.43;;;;;;;;;;5052746;28;20060;-61
2021/05/04 03:44:30;;;;;;;6.47;5.82;;;;;;;;;;5053562;28;20495;-61
2021/05/04 03:47:15;;;;;;;7.85;5.88;;;;;;;;;;5053526;28;20135;-61
2021/05/04 03:50:01;;;;;;;6.57;5.60;;;;;;;;;;5052976;28;20049;-61
2021/05/04 03:52:46;;;;;;;8.73;6.15;;;;;;;;;;5037530;28;20134;-60
2021/05/04 03:55:31;;;;;;;6.68;5.70;;;;;;;;;;5052354;28;20056;-61
2021/05/04 03:58:17;;;;;;;6.45;5.85;;;;;;;;;;5053229;28;20550;-62
2021/05/04 04:01:02;;;;;;;5.97;5.35;;;;;;;;;;5053226;28;20076;-61
2021/05/04 04:03:50;;;;;;;7.90;6.00;;;;;;;;;;5033329;28;20056;-61
2021/05/04 04:06:35;;;;;;;7.28;6.15;;;;;;;;;;5033116;28;20152;-61
2021/05/04 04:09:21;;;;;;;7.85;5.82;;;;;;;;;;5034313;28;20050;-62
2021/05/04 04:12:06;;;;;;;7.22;5.55;;;;;;;;;;5053082;28;20044;-61
2021/05/04 04:14:53;;;;;;;7.05;6.30;;;;;;;;;;5052939;28;20053;-61
2021/05/04 04:17:38;;;;;;;7.45;5.35;;;;;;;;;;5053131;28;20151;-61
2021/05/04 04:20:24;;;;;;;6.20;5.15;;;;;;;;;;5051678;28;20131;-61
2021/05/04 04:23:09;;;;;;;5.88;4.72;;;;;;;;;;5052745;28;20049;-60
2021/05/04 04:25:55;;;;;;;7.07;4.82;;;;;;;;;;5052954;28;20049;-62
2021/05/04 04:28:40;;;;;;;5.13;4.63;;;;;;;;;;5052906;28;20056;-61
2021/05/04 04:31:26;;;;;;;5.45;4.93;;;;;;;;;;5051283;28;20045;-61
2021/05/04 04:34:11;;;;;;;5.28;4.32;;;;;;;;;;5052550;28;20718;-61
2021/05/04 04:36:57;;;;;;;4.75;4.35;;;;;;;;;;5052463;28;20045;-61
2021/05/04 04:39:42;;;;;;;4.93;3.92;;;;;;;;;;5052240;28;20052;-61
2021/05/04 04:42:27;;;;;;;5.30;4.47;;;;;;;;;;5051535;28;20407;-62
2021/05/04 04:45:13;;;;;;;9.13;5.22;;;;;;;;;;5052560;28;20051;-61
2021/05/04 04:47:59;;;;;;;6.78;4.70;;;;;;;;;;5052435;28;20116;-60
2021/05/04 04:50:44;;;;;;;5.22;4.30;;;;;;;;;;5050346;28;20045;-61
2021/05/04 04:53:29;;;;;;;5.68;5.18;;;;;;;;;;5052338;28;20045;-61
2021/05/04 04:56:14;;;;;;;6.13;5.57;;;;;;;;;;5052213;28;20518;-61
2021/05/04 04:59:00;;;;;;;7.60;5.40;;;;;;;;;;5052364;28;20053;-61
2021/05/04 05:01:45;;;;;;;14.95;6.28;;;;;;;;;;5051098;28;20041;-61
2021/05/04 05:04:30;;;;;;;6.25;5.53;;;;;;;;;;5052151;28;20056;-61
2021/05/04 05:07:16;;;;;;;6.47;5.43;;;;;;;;;;5052059;28;20528;-61
2021/05/04 05:10:01;;;;;;;7.47;6.30;;;;;;;;;;5051522;28;20499;-62
2021/05/04 05:12:47;;;;;;;6.32;5.55;;;;;;;;;;5051195;28;20049;-61
2021/05/04 05:15:38;;;;;;;6.13;4.75;;;;;;;;;;5052200;28;20139;-61
2021/05/04 05:18:23;;;;;;;6.30;4.57;;;;;;;;;;5052079;28;20049;-61
2021/05/04 05:21:09;;;;;;;5.38;4.85;;;;;;;;;;5051576;28;20049;-61
2021/05/04 05:23:54;;;;;;;5.35;4.30;;;;;;;;;;5051161;28;20053;-62
2021/05/04 05:26:41;;;;;;;5.97;4.28;;;;;;;;;;5052027;28;20072;-61
2021/05/04 05:29:26;;;;;;;5.00;3.65;;;;;;;;;;5051466;28;20446;-60
2021/05/04 05:32:11;;;;;;;6.85;3.63;;;;;;;;;;5035832;28;20492;-61
2021/05/04 05:34:56;;;;;;;8.45;4.57;;;;;;;;;;5036824;28;20049;-61
2021/05/04 05:37:42;;;;;;;5.65;3.80;;;;;;;;;;5051910;28;20053;-61
2021/05/04 05:40:27;;;;;;;4.63;3.92;;;;;;;;;;5051328;28;20052;-61
2021/05/04 05:43:12;;;;;;;5.15;3.30;;;;;;;;;;5050909;28;20064;-61
2021/05/04 05:45:58;;;;;;;5.82;3.67;;;;;;;;;;5051774;28;20164;-61
2021/05/04 05:48:44;;;;;;;4.10;3.25;;;;;;;;;;5052122;28;20057;-63
2021/05/04 05:51:29;;;;;;;6.30;3.83;;;;;;;;;;5051941;28;20049;-62
2021/05/04 05:54:15;;;;;;;6.85;3.42;;;;;;;;;;5051228;28;20510;-62
2021/05/04 05:57:00;;;;;;;4.70;3.13;;;;;;;;;;5051859;28;20055;-61
2021/05/04 05:59:45;;;;;;;5.00;3.45;;;;;;;;;;5051420;28;20514;-61
2021/05/04 06:02:31;;;;;;;4.72;3.30;;;;;;;;;;5040519;28;20128;-61
2021/05/04 06:05:16;;;;;;;5.40;2.80;;;;;;;;;;5053638;28;20049;-61
2021/05/04 06:08:02;;;;;;;6.07;3.17;;;;;;;;;;5055451;28;20072;-61
2021/05/04 06:10:48;;;;;;;3.65;2.60;;;;;;;;;;5054899;28;20456;-61
2021/05/04 06:13:33;;;;;;;2.80;2.15;;;;;;;;;;5054314;28;20048;-61
2021/05/04 06:16:19;;;;;;;3.75;2.63;;;;;;;;;;5055412;28;20103;-61
2021/05/04 06:19:04;;;;;;;3.00;2.00;;;;;;;;;;5055154;28;20056;-62
2021/05/04 06:21:49;;;;;;;5.40;2.10;;;;;;;;;;5055024;28;20084;-61
2021/05/04 06:24:35;;;;;;;4.25;2.40;;;;;;;;;;5053887;28;20132;-61
2021/05/04 06:27:20;;;;;;;3.65;2.50;;;;;;;;;;5055107;28;20114;-61
2021/05/04 06:30:07;;;;;;;3.90;2.42;;;;;;;;;;5053594;28;20052;-61
2021/05/04 06:32:52;;;;;;;3.90;2.35;;;;;;;;;;5055070;28;20049;-61
2021/05/04 06:35:40;;;;;;;2.58;2.38;;;;;;;;;;5054997;28;20122;-61
2021/05/04 06:38:25;;;;;;;3.85;2.90;;;;;;;;;;5054849;28;20045;-62
2021/05/04 06:41:10;;;;;;;6.68;3.17;;;;;;;;;;5053491;28;20045;-61
2021/05/04 06:43:56;;;;;;;10.35;3.25;;;;;;;;;;5039716;28;20052;-61
2021/05/04 06:46:41;;;;;;;9.77;3.40;;;;;;;;;;5054725;28;20053;-61
2021/05/04 06:49:26;;;;;;;6.25;2.90;;;;;;;;;;5054440;28;20052;-61
2021/05/04 06:52:12;;;;;;;13.70;3.45;;;;;;;;;;5053623;28;20095;-61
2021/05/04 06:54:57;;;;;;;4.82;2.60;;;;;;;;;;5054575;28;20076;-62
2021/05/04 06:57:42;;;;;;;8.00;3.92;;;;;;;;;;5054656;28;20179;-61
2021/05/04 07:00:28;;;;;;;11.18;4.25;;;;;;;;;;5053064;28;20036;-62
2021/05/04 07:03:13;;;;;;;9.80;3.72;;;;;;;;;;5054345;28;20136;-61
2021/05/04 07:05:59;;;;;;;13.57;4.75;;;;;;;;;;5054274;28;20514;-62
2021/05/04 07:08:44;;;;;;;10.90;3.63;;;;;;;;;;5054281;28;20041;-62
2021/05/04 07:11:31;;;;;;;12.82;3.17;;;;;;;;;;5052604;28;20484;-62
2021/05/04 07:14:16;;;;;;;12.32;3.72;;;;;;;;;;5053769;28;20103;-62
2021/05/04 07:17:02;;;;;;;10.98;3.75;;;;;;;;;;5053307;28;20052;-62
2021/05/04 07:19:48;;;;;;;11.50;3.00;;;;;;;;;;5052481;28;20096;-63
2021/05/04 07:22:34;;;;;;;11.13;2.97;;;;;;;;;;5044431;28;20540;-62
2021/05/04 07:25:20;;;;;;;10.05;3.28;;;;;;;;;;5045571;28;20049;-62
2021/05/04 07:28:05;;;;;;;9.00;2.83;;;;;;;;;;5045453;28;20487;-62
2021/05/04 07:30:51;;;;;;;14.05;2.95;;;;;;;;;;5052053;28;20041;-60
2021/05/04 07:33:37;;;;;;;10.15;2.50;;;;;;;;;;5034583;28;20046;-63
2021/05/04 07:36:22;;;;;;;12.43;3.17;;;;;;;;;;5034324;28;20543;-62
2021/05/04 07:39:08;;;;;;;8.57;2.70;;;;;;;;;;5034162;28;20049;-62
2021/05/04 07:41:53;;;;;;;10.70;3.08;;;;;;;;;;5039408;28;20049;-63
2021/05/04 07:44:38;;;;;;;13.13;3.88;;;;;;;;;;5054279;28;20131;-63
2021/05/04 07:47:24;;;;;;;11.13;2.83;;;;;;;;;;5053861;28;20060;-62
2021/05/04 07:50:11;;;;;;;11.68;3.13;;;;;;;;;;5053413;28;20124;-63
2021/05/04 07:52:56;;;;;;;14.23;3.63;;;;;;;;;;5052137;28;20556;-63
2021/05/04 07:55:42;;;;;;;9.93;3.65;;;;;;;;;;5053685;28;20522;-63
2021/05/04 07:58:28;;;;;;;12.98;2.88;;;;;;;;;;5054158;28;20048;-63
2021/05/04 08:01:13;;;;;;;11.43;3.33;;;;;;;;;;5053060;28;20108;-62
2021/05/04 08:03:58;;;;;;;12.38;3.38;;;;;;;;;;5053514;28;20435;-62
2021/05/04 08:06:43;;;;;;;14.43;3.47;;;;;;;;;;5053415;28;20041;-63
2021/05/04 08:09:29;;;;;;;8.10;2.28;;;;;;;;;;5053196;28;20048;-62
2021/05/04 08:12:14;;;;;;;13.63;2.80;;;;;;;;;;5068100;22;20045;-63
2021/05/04 08:15:00;;;;;;;12.13;2.53;;;;;;;;;;5051535;28;20494;-63
2021/05/04 08:17:50;;;;;;;13.48;2.92;;;;;;;;;;5052090;28;20057;-63
2021/05/04 08:20:43;;;;;;;12.55;3.13;;;;;;;;;;5051975;28;20048;-63
2021/05/04 08:23:28;;;;;;;11.40;3.75;;;;;;;;;;5032927;28;20053;-63
2021/05/04 08:26:16;;;;;;;15.10;3.38;;;;;;;;;;5032997;28;20045;-63
2021/05/04 08:29:01;;;;;;;15.80;3.78;;;;;;;;;;5032721;28;20495;-63
2021/05/04 08:31:47;;;;;;;13.48;2.88;;;;;;;;;;5031808;28;20045;-62
2021/05/04 08:34:32;;;;;;;14.70;2.88;;;;;;;;;;5032792;28;20049;-63
2021/05/04 08:37:17;;;;;;;15.02;3.25;;;;;;;;;;5031702;28;20053;-63
2021/05/04 08:40:03;;;;;;;13.38;2.90;;;;;;;;;;5032584;28;20129;-63
2021/05/04 08:42:49;;;;;;;12.23;3.13;;;;;;;;;;5031837;28;20049;-63
2021/05/04 08:45:34;;;;;;;11.10;2.90;;;;;;;;;;5031613;28;20049;-63
2021/05/04 08:48:19;;;;;;;11.30;3.47;;;;;;;;;;5032733;28;20054;-63
2021/05/04 08:51:05;;;;;;;11.35;2.65;;;;;;;;;;5016697;28;20562;-63
2021/05/04 08:53:50;;;;;;;9.75;2.38;;;;;;;;;;5032417;28;20045;-62
2021/05/04 08:56:35;;;;;;;5.72;1.90;;;;;;;;;;5031612;28;20053;-61
2021/05/04 08:59:21;;;;;;;7.20;2.38;;;;;;;;;;5032218;28;20116;-62
2021/05/04 09:02:06;;;;;;;4.18;1.27;;;;;;;;;;5031319;28;20483;-63
2021/05/04 09:04:55;;;;;;;2.05;0.75;;;;;;;;;;5032456;28;20050;-63
2021/05/04 09:07:41;;;;;;;3.22;0.88;;;;;;;;;;5032220;28;20037;-62
2021/05/04 09:13:31;;;;;;;3.72;0.93;;;;;;;;;;5029412;28;20064;-63
2021/05/04 09:22:03;;;;;;;5.55;1.65;;;;;;;;;;5023680;28;20514;-63
2021/05/04 09:24:49;;;;;;;3.15;0.90;;;;;;;;;;5022666;28;20041;-61
2021/05/04 09:27:34;;;;;;;5.40;1.30;;;;;;;;;;5030606;28;20512;-63
2021/05/04 09:30:20;;;;;;;5.75;1.83;;;;;;;;;;5029733;28;20443;-63
2021/05/04 09:33:08;;;;;;;6.78;1.70;;;;;;;;;;5021559;28;20042;-63
2021/05/04 09:35:53;;;;;;;7.30;1.40;;;;;;;;;;5024309;28;20037;-61
2021/05/04 09:38:44;;;;;;;9.82;2.38;;;;;;;;;;5026932;28;20092;-61
2021/05/04 09:41:30;;;;;;;7.10;2.13;;;;;;;;;;5031298;28;20080;-61
2021/05/04 09:44:15;;;;;;;9.18;2.47;;;;;;;;;;5034858;28;20132;-61
2021/05/04 09:47:00;;;;;;;11.23;2.03;;;;;;;;;;5033325;28;20046;-62
2021/05/04 09:49:45;;;;;;;10.23;2.33;;;;;;;;;;5035733;28;20053;-61
2021/05/04 09:55:18;;;;;;;8.70;1.90;;;;;;;;;;5035839;28;20045;-60
2021/05/04 09:58:08;;;;;;;9.18;2.40;;;;;;;;;;5035732;28;20050;-60
2021/05/04 10:00:53;;;;;;;7.22;2.70;;;;;;;;;;5034537;28;20407;-60
2021/05/04 10:03:39;;;;;;;8.70;2.83;;;;;;;;;;5035762;28;20054;-62
2021/05/04 10:06:25;;;;;;;10.57;2.67;;;;;;;;;;5035609;28;20049;-62
2021/05/04 10:09:10;;;;;;;10.93;2.70;;;;;;;;;;5035431;28;20041;-61
2021/05/04 10:11:55;;;;;;;10.32;2.83;;;;;;;;;;5033461;28;20136;-61
2021/05/04 10:14:43;;;;;;;8.27;1.98;;;;;;;;;;5034398;28;20120;-60
2021/05/04 10:17:31;;;;;;;9.18;2.33;;;;;;;;;;5034384;28;20046;-59
2021/05/04 10:20:18;;;;;;;11.07;2.05;;;;;;;;;;5035173;28;20045;-61
2021/05/04 10:23:03;;;;;;;10.32;1.90;;;;;;;;;;5033909;28;20140;-60
2021/05/04 10:25:48;;;;;;;11.60;2.38;;;;;;;;;;5034180;28;20503;-61
2021/05/04 10:28:34;;;;;;;8.13;1.75;;;;;;;;;;5034014;28;20461;-61
2021/05/04 10:31:20;;;;;;;6.10;2.05;;;;;;;;;;5032938;28;20137;-60
2021/05/04 10:34:26;;;;;;;4.97;0.90;;;;;;;;;;5034054;28;20042;-61
2021/05/04 10:37:14;;;;;;;3.58;0.90;;;;;;;;;;5035108;28;20056;-61
2021/05/04 10:39:59;;;;;;;3.70;0.65;;;;;;;;;;5033700;28;20053;-61
2021/05/04 10:42:46;;;;;;;5.75;0.90;;;;;;;;;;5034836;28;20049;-61
2021/05/04 10:45:40;;;;;;;1.45;0.35;;;;;;;;;;5034926;28;20128;-62
2021/05/04 10:48:41;;;;;;;1.00;0.38;;;;;;;;;;5033603;28;20054;-61
2021/05/04 10:51:42;;;;;;;2.47;0.70;;;;;;;;;;5032762;28;20063;-61
2021/05/04 10:54:27;;;;;;;2.97;0.70;;;;;;;;;;5034656;28;20499;-61
2021/05/04 10:57:12;;;;;;;4.30;0.60;;;;;;;;;;5032816;28;20084;-61
2021/05/04 10:59:58;;;;;;;3.42;0.90;;;;;;;;;;5032491;28;20491;-62
2021/05/04 11:02:43;;;;;;;2.80;0.90;;;;;;;;;;5032776;28;20088;-60
2021/05/04 11:05:47;;;;;;;10.25;1.77;;;;;;;;;;5032837;28;20049;-61
2021/05/04 11:08:41;;;;;;;4.97;1.45;;;;;;;;;;5033334;28;20487;-61
2021/05/04 11:11:32;;;;;;;3.72;1.45;;;;;;;;;;5033819;28;20503;-61
2021/05/04 11:14:18;;;;;;;5.53;1.98;;;;;;;;;;5034464;28;20057;-61
2021/05/04 11:17:04;;;;;;;6.53;1.92;;;;;;;;;;5032820;28;20042;-61
2021/05/04 11:19:49;;;;;;;4.25;1.80;;;;;;;;;;5031867;28;20084;-61
2021/05/04 11:22:35;;;;;;;8.40;2.15;;;;;;;;;;5034089;28;20049;-61
2021/05/04 11:25:40;;;;;;;8.48;2.20;;;;;;;;;;5032324;28;20518;-61
2021/05/04 11:28:25;;;;;;;8.55;1.35;;;;;;;;;;5033141;28;20042;-61
2021/05/04 11:31:30;;;;;;;3.65;1.30;;;;;;;;;;5032648;28;20045;-60
2021/05/04 11:34:34;;;;;;;6.95;2.22;;;;;;;;;;5030344;28;20046;-61
2021/05/04 11:37:20;;;;;;;4.22;1.00;;;;;;;;;;5033031;28;20052;-62
2021/05/04 11:40:09;;;;;;;4.40;1.45;;;;;;;;;;5032674;28;20112;-61
2021/05/04 11:43:00;;;;;;;3.88;1.70;;;;;;;;;;5023484;28;20046;-62
2021/05/04 11:45:45;;;;;;;4.35;1.10;;;;;;;;;;5026409;28;20172;-62
2021/05/04 11:48:31;;;;;;;8.32;1.73;;;;;;;;;;5023786;28;20049;-62
2021/05/04 11:51:16;;;;;;;3.80;1.05;;;;;;;;;;5023144;28;20045;-62
2021/05/04 11:54:01;;;;;;;4.38;0.95;;;;;;;;;;5024413;28;20045;-62
2021/05/04 11:56:53;;;;;;;10.82;1.80;;;;;;;;;;5024342;28;20511;-62
2021/05/04 11:59:38;;;;;;;4.13;1.08;;;;;;;;;;5028245;28;20045;-62
2021/05/04 12:02:33;;;;;;;1.50;0.80;;;;;;;;;;5032015;28;20057;-62
2021/05/04 12:05:25;;;;;;;3.63;1.00;;;;;;;;;;5029873;28;20045;-62
2021/05/04 12:08:10;;;;;;;3.97;1.95;;;;;;;;;;5031272;28;20049;-62
2021/05/04 12:10:55;;;;;;;4.22;2.47;;;;;;;;;;5028223;28;20487;-62
2021/05/04 12:13:41;;;;;;;6.70;2.20;;;;;;;;;;5030363;28;20076;-62
2021/05/04 12:16:29;;;;;;;7.55;2.75;;;;;;;;;;5026335;28;20128;-62
2021/05/04 12:19:22;;;;;;;8.43;2.53;;;;;;;;;;5032199;28;20064;-62
2021/05/04 12:22:07;;;;;;;6.95;2.53;;;;;;;;;;5031095;28;20064;-62
2021/05/04 12:24:57;;;;;;;7.53;2.05;;;;;;;;;;5032956;28;20103;-62
2021/05/04 12:27:43;;;;;;;8.45;2.22;;;;;;;;;;5031301;28;20046;-62
2021/05/04 12:30:29;;;;;;;10.82;2.15;;;;;;;;;;5031060;28;20049;-62
2021/05/04 12:33:14;;;;;;;8.27;2.13;;;;;;;;;;5032536;28;20079;-62
2021/05/04 12:38:51;;;;;;;10.20;2.65;;;;;;;;;;5031622;28;20045;-62
2021/05/04 12:41:38;;;;;;;4.18;1.60;;;;;;;;;;5028563;28;20130;-62
2021/05/04 12:44:30;;;;;;;5.28;1.83;;;;;;;;;;5034213;28;20455;-62
2021/05/04 12:47:16;;;;;;;5.55;2.13;;;;;;;;;;5025576;28;20480;-62
2021/05/04 12:50:01;;;;;;;4.88;1.48;;;;;;;;;;5036711;28;20041;-62
2021/05/04 12:52:47;;;;;;;7.68;2.42;;;;;;;;;;5021724;28;20118;-63
2021/05/04 12:55:32;;;;;;;3.55;1.60;;;;;;;;;;5038335;28;20519;-63
2021/05/04 12:58:17;;;;;;;4.15;1.33;;;;;;;;;;5038998;28;20054;-63
2021/05/04 13:01:10;;;;;;;4.32;1.20;;;;;;;;;;5044729;28;20041;-62
2021/05/04 13:03:56;;;;;;;2.30;1.20;;;;;;;;;;5030025;28;20041;-62
2021/05/04 13:06:45;;;;;;;2.38;1.52;;;;;;;;;;5020044;28;20040;-62
2021/05/04 13:09:36;;;;;;;5.63;1.90;;;;;;;;;;5035360;28;20045;-62
2021/05/04 13:16:02;;;;;;;4.15;1.60;;;;;;;;;;5041064;28;20080;-63
2021/05/04 13:18:52;;;;;;;3.83;1.35;;;;;;;;;;5032319;28;20053;-63
2021/05/04 13:31:24;;;;;;;4.70;2.22;;;;;;;;;;4999026;28;20059;-63
2021/05/04 13:34:16;;;;;;;6.88;1.67;;;;;;;;;;5005672;28;20054;-62
2021/05/04 13:37:02;;;;;;;8.20;2.22;;;;;;;;;;5034952;28;20057;-62
2021/05/04 13:48:44;;;;;;;4.35;2.08;;;;;;;;;;5021839;28;20198;-62
2021/05/04 13:51:30;;;;;;;8.50;2.47;;;;;;;;;;5037429;28;20049;-62
2021/05/04 13:54:15;;;;;;;8.00;2.15;;;;;;;;;;5047802;28;20056;-62
2021/05/04 13:57:00;;;;;;;5.82;2.20;;;;;;;;;;5033545;28;20041;-62
2021/05/04 13:59:52;;;;;;;5.00;2.28;;;;;;;;;;5043852;28;20045;-62
2021/05/04 14:03:03;;;;;;;6.65;2.15;;;;;;;;;;5033649;28;20457;-63
2021/05/04 14:26:29;;;;;;;7.55;1.80;;;;;;;;;;5034158;28;20061;-63
2021/05/04 14:29:15;;;;;;;5.22;1.77;;;;;;;;;;5035082;28;20041;-63
2021/05/04 14:32:00;;;;;;;6.13;1.85;;;;;;;;;;5033861;28;20049;-63
2021/05/04 14:34:46;;;;;;;6.47;1.80;;;;;;;;;;5034339;28;20049;-63
2021/05/04 14:37:58;;;;;;;6.80;1.77;;;;;;;;;;5033989;28;20049;-63
2021/05/04 14:40:59;;;;;;;5.32;1.52;;;;;;;;;;5033488;28;20037;-63
2021/05/04 14:58:48;;;;;;;9.73;1.80;;;;;;;;;;5031570;28;20487;-63
2021/05/04 15:01:44;;;;;;;7.70;1.58;;;;;;;;;;5031585;28;20045;-62
2021/05/04 15:04:30;;;;;;;3.42;1.30;;;;;;;;;;5032436;28;20057;-62
2021/05/04 15:07:15;;;;;;;6.90;1.73;;;;;;;;;;5014771;28;20101;-63
2021/05/04 15:10:00;;;;;;;7.25;1.98;;;;;;;;;;5020309;28;20037;-63
2021/05/04 15:12:46;;;;;;;6.32;2.00;;;;;;;;;;5027980;28;20081;-63
2021/05/04 15:15:41;;;;;;;4.75;1.48;;;;;;;;;;5023778;28;20045;-63
2021/05/04 15:24:20;;;;;;;3.00;1.17;;;;;;;;;;5025343;28;20515;-63
2021/05/04 15:27:09;;;;;;;5.38;1.30;;;;;;;;;;5024301;28;20053;-63
2021/05/04 15:29:55;;;;;;;10.07;1.55;;;;;;;;;;5021967;28;20492;-62
2021/05/04 15:32:48;;;;;;;9.55;1.63;;;;;;;;;;5021614;28;20128;-62
2021/05/04 15:35:37;;;;;;;6.70;1.63;;;;;;;;;;5019870;28;20054;-63
2021/05/04 15:38:22;;;;;;;11.85;2.25;;;;;;;;;;5032561;28;20041;-63
2021/05/04 15:41:07;;;;;;;8.32;1.83;;;;;;;;;;5032889;28;20053;-63
2021/05/04 15:43:54;;;;;;;7.25;1.85;;;;;;;;;;5033028;28;20045;-63
2021/05/04 15:46:48;;;;;;;6.70;1.85;;;;;;;;;;5030935;28;20057;-63
2021/05/04 15:49:38;;;;;;;9.30;2.00;;;;;;;;;;5013746;28;20089;-63
2021/05/04 16:07:39;;;;;;;6.45;1.92;;;;;;;;;;5031617;28;20139;-62
2021/05/04 16:10:24;;;;;;;6.45;1.67;;;;;;;;;;5024177;28;20084;-63
2021/05/04 16:13:10;;;;;;;4.05;1.58;;;;;;;;;;5038424;28;20053;-64
2021/05/04 16:15:55;;;;;;;7.40;1.45;;;;;;;;;;5041743;28;20061;-63
2021/05/04 16:18:43;;;;;;;4.40;1.10;;;;;;;;;;5031830;28;20049;-63
2021/05/04 16:27:24;;;;;;;6.18;2.08;;;;;;;;;;5048713;28;20120;-63
2021/05/04 16:30:11;;;;;;;18.27;2.47;;;;;;;;;;5032064;28;20446;-64
2021/05/04 16:32:56;;;;;;;7.07;1.85;;;;;;;;;;5027778;28;20522;-62
2021/05/04 16:35:42;;;;;;;8.02;2.17;;;;;;;;;;5029045;28;20073;-63
2021/05/04 16:38:27;;;;;;;8.00;2.22;;;;;;;;;;5029541;28;20037;-63
2021/05/04 16:41:12;;;;;;;9.57;2.08;;;;;;;;;;5028734;28;20077;-63
2021/05/04 16:43:57;;;;;;;7.65;2.20;;;;;;;;;;5029170;28;20431;-63
2021/05/04 16:46:59;;;;;;;8.65;2.15;;;;;;;;;;5028419;28;20045;-62
2021/05/04 16:49:44;;;;;;;7.20;2.05;;;;;;;;;;5028146;28;20392;-63
2021/05/04 16:52:32;;;;;;;10.00;1.88;;;;;;;;;;5030569;28;20080;-63
2021/05/04 16:55:17;;;;;;;10.40;2.53;;;;;;;;;;5019505;28;20037;-62
2021/05/04 16:58:02;;;;;;;10.50;2.58;;;;;;;;;;5045157;28;20037;-63
2021/05/04 17:00:48;;;;;;;8.05;1.80;;;;;;;;;;5029321;28;20037;-63
2021/05/04 17:03:34;;;;;;;9.15;1.88;;;;;;;;;;5029884;28;20048;-62
2021/05/04 17:06:29;;;;;;;7.93;1.70;;;;;;;;;;5029525;28;20443;-63
2021/05/04 17:11:59;;;;;;;6.90;2.15;;;;;;;;;;5005274;28;20045;-62
2021/05/04 17:14:45;;;;;;;6.63;1.45;;;;;;;;;;5013608;28;20500;-63
2021/05/04 17:17:30;;;;;;;6.47;1.73;;;;;;;;;;5010278;28;20053;-63
2021/05/04 17:20:16;;;;;;;5.72;1.90;;;;;;;;;;5026009;28;20061;-62
2021/05/04 17:23:01;;;;;;;7.30;1.77;;;;;;;;;;5029484;28;20049;-63
2021/05/04 17:25:48;;;;;;;8.40;1.70;;;;;;;;;;5033347;28;20100;-63
2021/05/04 17:28:33;;;;;;;6.53;1.40;;;;;;;;;;5029313;28;20076;-62
2021/05/04 17:31:19;;;;;;;9.10;2.33;;;;;;;;;;5027197;28;20506;-63
2021/05/04 17:34:04;;;;;;;9.57;2.00;;;;;;;;;;5028770;28;20503;-64
2021/05/04 17:36:49;;;;;;;8.18;2.70;;;;;;;;;;5028136;28;20383;-63
2021/05/04 17:39:35;;;;;;;12.55;2.67;;;;;;;;;;5028074;28;20053;-63
2021/05/04 17:42:40;;;;;;;9.55;1.98;;;;;;;;;;5028346;28;20111;-63
2021/05/04 17:45:28;;;;;;;7.85;2.00;;;;;;;;;;5028678;28;20120;-63
2021/05/04 17:48:13;;;;;;;10.88;2.53;;;;;;;;;;5026742;28;20041;-62
2021/05/04 17:50:58;;;;;;;6.07;1.60;;;;;;;;;;5024702;28;20567;-63
2021/05/04 17:53:44;;;;;;;8.50;2.83;;;;;;;;;;5026309;28;20064;-62
2021/05/04 17:56:29;;;;;;;11.40;2.15;;;;;;;;;;5029165;28;20132;-63
2021/05/04 17:59:14;;;;;;;11.00;1.83;;;;;;;;;;5031027;28;20049;-62
2021/05/04 18:02:01;;;;;;;7.05;1.90;;;;;;;;;;5022486;28;20049;-63
2021/05/04 18:04:46;;;;;;;13.27;2.00;;;;;;;;;;5030830;28;20041;-62
2021/05/04 18:07:34;;;;;;;8.27;1.67;;;;;;;;;;5029968;28;20049;-64
2021/05/04 18:10:20;;;;;;;9.48;2.53;;;;;;;;;;5026647;28;20050;-64
2021/05/04 18:22:02;;;;;;;9.90;2.00;;;;;;;;;;5032167;28;20050;-62
2021/05/04 18:24:47;;;;;;;8.90;2.08;;;;;;;;;;5031243;28;20057;-63
2021/05/04 18:27:32;;;;;;;7.72;1.73;;;;;;;;;;5053442;28;20052;-63